createdAt,value
2023-01-25T00:00:54.419Z,1.00
2023-01-25T00:03:22.946Z,1.00
2023-01-25T00:05:59.265Z,1.00
2023-01-25T00:08:27.560Z,1.00
2023-01-25T00:10:58.511Z,99.90
2023-01-25T00:13:27.070Z,1.00
2023-01-25T00:15:55.328Z,1.00
2023-01-25T00:18:23.603Z,99.90
2023-01-25T00:20:51.847Z,1.00
2023-01-25T00:23:20.155Z,1.00
2023-01-25T00:25:48.522Z,1.00
2023-01-25T00:28:18.239Z,1.00
2023-01-25T00:30:46.470Z,1.00
2023-01-25T00:33:40.072Z,1.00
2023-01-25T00:36:29.993Z,1.00
2023-01-25T00:38:58.740Z,1.00
2023-01-25T00:41:27.036Z,1.00
2023-01-25T00:43:56.768Z,1.00
2023-01-25T00:46:25.068Z,1.00
2023-01-25T00:48:54.860Z,1.00
2023-01-25T00:51:23.107Z,1.00
2023-01-25T00:53:51.444Z,99.90
2023-01-25T00:56:19.783Z,1.00
2023-01-25T00:58:48.072Z,1.00
2023-01-25T01:01:17.742Z,1.00
2023-01-25T01:03:46.106Z,1.00
2023-01-25T01:06:14.359Z,1.00
2023-01-25T01:08:42.995Z,9.90
2023-01-25T01:11:12.566Z,13.60
2023-01-25T01:13:40.903Z,1.00
2023-01-25T01:16:11.945Z,1.00
2023-01-25T01:18:43.776Z,1.00
2023-01-25T01:21:12.423Z,28.10
2023-01-25T01:23:40.797Z,21.90
2023-01-25T01:26:09.978Z,99.90
2023-01-25T01:28:39.614Z,99.90
2023-01-25T01:31:08.687Z,40.80
2023-01-25T01:33:37.049Z,1.00
2023-01-25T01:36:10.578Z,1.00
2023-01-25T01:38:38.914Z,1.00
2023-01-25T01:41:07.153Z,1.00
2023-01-25T01:43:35.490Z,1.00
2023-01-25T01:46:04.169Z,1.00
2023-01-25T01:48:35.589Z,1.00
2023-01-25T01:51:05.293Z,99.90
2023-01-25T01:53:34.971Z,99.90
2023-01-25T01:56:05.024Z,1.00
2023-01-25T01:58:33.332Z,99.90
2023-01-25T02:01:01.651Z,99.90
2023-01-25T02:03:29.924Z,99.90
2023-01-25T02:06:00.225Z,1.00
2023-01-25T02:08:29.577Z,99.90
2023-01-25T02:10:59.252Z,99.90
2023-01-25T02:13:27.613Z,99.90
2023-01-25T02:15:56.620Z,99.90
2023-01-25T02:18:25.202Z,99.90
2023-01-25T02:20:53.882Z,1.00
2023-01-25T02:23:27.042Z,99.90
2023-01-25T02:25:57.848Z,1.00
2023-01-25T02:28:27.403Z,1.00
2023-01-25T02:30:55.717Z,1.00
2023-01-25T02:33:24.601Z,1.00
2023-01-25T02:35:56.292Z,99.90
2023-01-25T02:38:24.580Z,1.00
2023-01-25T02:40:57.267Z,1.00
2023-01-25T02:43:25.646Z,99.90
2023-01-25T02:45:56.325Z,99.90
2023-01-25T02:48:24.699Z,99.90
2023-01-25T02:50:52.936Z,99.90
2023-01-25T02:53:21.252Z,99.90
2023-01-25T02:55:49.486Z,99.90
2023-01-25T02:58:19.195Z,99.90
2023-01-25T03:00:47.475Z,99.90
2023-01-25T03:03:15.862Z,99.90
2023-01-25T03:05:44.944Z,1.00
2023-01-25T03:08:13.259Z,1.00
2023-01-25T03:10:41.493Z,47.10
2023-01-25T03:13:09.863Z,99.90
2023-01-25T03:15:39.491Z,1.00
2023-01-25T03:18:07.883Z,31.50
2023-01-25T03:20:36.128Z,99.90
2023-01-25T03:23:04.416Z,99.90
2023-01-25T03:25:32.687Z,69.30
2023-01-25T03:28:00.943Z,99.90
2023-01-25T03:30:29.233Z,99.90
2023-01-25T03:32:58.874Z,2.40
2023-01-25T03:35:27.167Z,97.20
2023-01-25T03:37:55.426Z,99.90
2023-01-25T03:40:23.669Z,99.90
2023-01-25T03:42:53.634Z,99.90
2023-01-25T03:45:21.892Z,24.90
2023-01-25T03:47:50.115Z,99.90
2023-01-25T03:50:19.991Z,99.90
2023-01-25T03:53:29.689Z,99.90
2023-01-25T03:55:58.765Z,52.80
2023-01-25T03:58:27.091Z,99.90
2023-01-25T04:00:56.561Z,99.90
2023-01-25T04:03:25.321Z,99.90
2023-01-25T04:05:55.013Z,99.90
2023-01-25T04:08:23.446Z,31.60
2023-01-25T04:10:53.688Z,17.20
2023-01-25T04:13:22.061Z,1.00
2023-01-25T04:15:50.377Z,1.00
2023-01-25T04:18:18.697Z,1.00
2023-01-25T04:20:46.935Z,99.90
2023-01-25T04:23:16.601Z,99.90
2023-01-25T04:25:44.802Z,99.90
2023-01-25T04:28:13.119Z,99.90
2023-01-25T04:30:41.362Z,99.90
2023-01-25T04:33:09.701Z,4.20
2023-01-25T04:35:38.106Z,75.30
2023-01-25T04:38:06.390Z,1.00
2023-01-25T04:40:36.043Z,1.00
2023-01-25T04:43:04.334Z,1.00
2023-01-25T04:45:32.617Z,1.00
2023-01-25T04:48:03.660Z,1.00
2023-01-25T04:50:32.045Z,99.90
2023-01-25T04:53:00.341Z,1.00
2023-01-25T04:55:28.621Z,1.00
2023-01-25T04:57:58.250Z,1.00
2023-01-25T05:00:26.517Z,99.90
2023-01-25T05:02:54.740Z,1.00
2023-01-25T05:05:23.005Z,37.50
2023-01-25T05:07:51.250Z,1.00
2023-01-25T05:10:19.591Z,37.80
2023-01-25T05:12:47.943Z,1.00
2023-01-25T05:15:17.703Z,1.00
2023-01-25T05:17:45.972Z,1.00
2023-01-25T05:20:14.498Z,99.90
2023-01-25T05:22:42.794Z,99.90
2023-01-25T05:25:31.212Z,99.90
2023-01-25T05:27:58.540Z,99.90
2023-01-25T05:30:28.241Z,99.90
2023-01-25T05:32:56.543Z,99.90
2023-01-25T05:35:24.850Z,90.90
2023-01-25T05:37:53.103Z,1.00
2023-01-25T05:40:21.411Z,1.00
2023-01-25T05:42:55.312Z,1.00
2023-01-25T05:45:23.554Z,1.00
2023-01-25T05:47:55.513Z,94.00
2023-01-25T05:50:23.862Z,1.00
2023-01-25T05:52:52.099Z,1.00
2023-01-25T05:55:20.343Z,1.00
2023-01-25T05:57:48.548Z,1.00
2023-01-25T06:00:17.494Z,99.90
2023-01-25T06:02:45.820Z,99.90
2023-01-25T06:05:15.638Z,1.00
2023-01-25T06:07:43.873Z,1.00
2023-01-25T06:10:12.677Z,99.90
2023-01-25T06:12:40.967Z,1.00
2023-01-25T06:15:10.684Z,1.00
2023-01-25T06:17:39.191Z,1.00
2023-01-25T06:20:08.525Z,99.90
2023-01-25T06:22:38.179Z,1.00
2023-01-25T06:25:07.905Z,99.90
2023-01-25T06:27:36.465Z,1.00
2023-01-25T06:30:05.171Z,1.00
2023-01-25T06:32:33.841Z,99.90
2023-01-25T06:35:02.096Z,1.00
2023-01-25T06:37:30.355Z,1.00
2023-01-25T06:40:00.008Z,1.00
2023-01-25T06:42:28.259Z,99.90
2023-01-25T06:44:56.491Z,1.00
2023-01-25T06:47:24.803Z,99.90
2023-01-25T06:49:53.063Z,99.90
2023-01-25T06:52:21.341Z,99.90
2023-01-25T06:54:49.678Z,99.90
2023-01-25T06:57:19.401Z,99.90
2023-01-25T06:59:47.656Z,99.90
2023-01-25T07:02:16.221Z,99.90
2023-01-25T07:04:44.521Z,99.90
2023-01-25T07:07:12.764Z,99.90
2023-01-25T07:09:41.081Z,99.90
2023-01-25T07:12:09.389Z,99.90
2023-01-25T07:14:39.153Z,99.90
2023-01-25T07:17:07.406Z,99.90
2023-01-25T07:19:35.707Z,99.90
2023-01-25T07:22:03.965Z,99.90
2023-01-25T07:24:32.393Z,99.90
2023-01-25T07:27:00.808Z,99.90
2023-01-25T07:29:29.900Z,99.90
2023-01-25T07:31:59.530Z,99.90
2023-01-25T07:34:29.048Z,99.90
2023-01-25T07:36:57.271Z,99.90
2023-01-25T07:39:25.526Z,99.90
2023-01-25T07:41:53.797Z,1.00
2023-01-25T07:44:22.125Z,1.00
2023-01-25T07:46:50.384Z,1.00
2023-01-25T07:49:20.366Z,1.00
2023-01-25T07:51:48.583Z,1.00
2023-01-25T07:54:17.147Z,1.00
2023-01-25T07:56:45.408Z,1.00
2023-01-25T07:59:14.446Z,74.50
2023-01-25T08:01:42.810Z,1.00
2023-01-25T08:04:11.448Z,1.00
2023-01-25T08:06:41.056Z,1.00
2023-01-25T08:09:10.428Z,1.00
2023-01-25T08:11:38.762Z,62.90
2023-01-25T08:14:07.087Z,99.90
2023-01-25T08:16:35.340Z,1.00
2023-01-25T08:19:04.124Z,1.00
2023-01-25T08:21:33.522Z,99.90
2023-01-25T08:24:04.132Z,99.90
2023-01-25T08:26:32.411Z,99.90
2023-01-25T08:29:00.981Z,99.90
2023-01-25T08:31:30.057Z,99.90
2023-01-25T08:33:58.653Z,99.90
2023-01-25T08:36:28.195Z,99.90
2023-01-25T08:38:57.229Z,99.90
2023-01-25T08:41:27.150Z,99.90
2023-01-25T08:43:55.982Z,99.90
2023-01-25T08:46:24.584Z,1.00
2023-01-25T08:48:55.202Z,99.90
2023-01-25T08:51:23.444Z,99.90
2023-01-25T08:53:51.796Z,99.90
2023-01-25T08:56:20.041Z,1.00
2023-01-25T08:58:50.422Z,99.90
2023-01-25T09:01:19.151Z,1.00
2023-01-25T09:03:48.509Z,99.90
2023-01-25T09:06:16.931Z,1.00
2023-01-25T09:08:45.281Z,1.00
2023-01-25T09:11:14.270Z,1.00
2023-01-25T09:13:43.602Z,1.00
2023-01-25T09:16:13.965Z,1.00
2023-01-25T09:18:43.432Z,1.00
2023-01-25T09:21:12.633Z,99.90
2023-01-25T09:23:51.379Z,99.90
2023-01-25T09:26:31.461Z,99.90
2023-01-25T09:29:00.719Z,99.90
2023-01-25T09:31:30.743Z,99.90
2023-01-25T09:33:59.183Z,34.20
2023-01-25T09:36:27.556Z,96.10
2023-01-25T09:38:56.964Z,99.90
2023-01-25T09:42:00.702Z,99.90
2023-01-25T09:44:39.535Z,99.90
2023-01-25T09:47:14.322Z,91.50
2023-01-25T09:49:59.424Z,99.90
2023-01-25T09:52:40.126Z,79.00
2023-01-25T09:55:13.484Z,99.90
2023-01-25T09:57:42.117Z,1.00
2023-01-25T10:00:16.321Z,1.00
2023-01-25T10:02:49.069Z,1.00
2023-01-25T10:05:19.720Z,99.90
2023-01-25T10:07:54.921Z,99.90
2023-01-25T10:10:24.589Z,99.90
2023-01-25T10:12:52.888Z,77.20
2023-01-25T10:15:22.957Z,1.00
2023-01-25T10:17:58.364Z,1.00
2023-01-25T10:20:30.824Z,1.00
2023-01-25T10:23:09.394Z,99.90
2023-01-25T10:25:38.053Z,99.90
2023-01-25T10:28:18.021Z,38.00
2023-01-25T10:30:49.496Z,99.90
2023-01-25T10:33:19.843Z,99.90
2023-01-25T10:35:49.782Z,72.00
2023-01-25T10:38:21.012Z,1.00
2023-01-25T10:40:51.355Z,1.00
2023-01-25T10:43:20.396Z,1.00
2023-01-25T10:45:48.988Z,1.00
2023-01-25T10:48:20.467Z,1.00
2023-01-25T10:50:53.507Z,99.90
2023-01-25T10:53:35.198Z,99.90
2023-01-25T10:56:25.382Z,48.30
2023-01-25T10:58:55.496Z,1.00
2023-01-25T11:01:29.246Z,1.00
2023-01-25T11:03:59.367Z,1.00
2023-01-25T11:06:32.485Z,1.00
2023-01-25T11:09:00.905Z,1.00
2023-01-25T11:11:33.392Z,1.00
2023-01-25T11:14:01.713Z,1.00
2023-01-25T11:16:32.665Z,1.00
2023-01-25T11:19:03.301Z,1.00
2023-01-25T11:21:32.688Z,1.00
2023-01-25T11:24:06.294Z,1.00
2023-01-25T11:26:36.396Z,1.00
2023-01-25T11:29:09.484Z,1.00
2023-01-25T11:31:37.870Z,1.00
2023-01-25T11:34:10.143Z,99.90
2023-01-25T11:36:42.454Z,99.90
2023-01-25T11:39:20.637Z,99.90
2023-01-25T11:42:02.327Z,92.90
2023-01-25T11:44:47.238Z,79.80
2023-01-25T11:47:23.418Z,42.20
2023-01-25T11:49:57.333Z,1.00
2023-01-25T11:52:29.820Z,9.20
2023-01-25T11:55:03.605Z,1.00
2023-01-25T11:57:57.515Z,1.00
2023-01-25T12:00:36.376Z,1.00
2023-01-25T12:03:37.360Z,1.00
2023-01-25T12:06:11.405Z,1.00
2023-01-25T12:08:58.323Z,1.00
2023-01-25T12:11:37.169Z,1.00
2023-01-25T12:14:08.743Z,1.00
2023-01-25T12:16:44.900Z,1.00
2023-01-25T12:19:27.143Z,1.00
2023-01-25T12:22:06.820Z,1.00
2023-01-25T12:24:43.595Z,1.00
2023-01-25T12:27:18.905Z,1.00
2023-01-25T12:29:49.397Z,1.00
2023-01-25T12:32:19.687Z,1.00
2023-01-25T12:34:49.956Z,1.00
2023-01-25T12:37:21.347Z,1.00
2023-01-25T12:39:51.456Z,1.00
2023-01-25T12:42:21.767Z,1.00
2023-01-25T12:44:57.810Z,1.00
2023-01-25T12:47:29.496Z,1.00
2023-01-25T12:50:02.429Z,1.00
2023-01-25T12:52:33.331Z,1.00
2023-01-25T12:55:02.704Z,1.00
2023-01-25T12:57:34.299Z,1.00
2023-01-25T13:00:06.963Z,1.00
2023-01-25T13:02:52.010Z,1.00
2023-01-25T13:05:27.095Z,1.00
2023-01-25T13:08:01.631Z,1.00
2023-01-25T13:10:32.270Z,1.00
2023-01-25T13:13:03.328Z,1.00
2023-01-25T13:15:41.932Z,1.00
2023-01-25T13:18:39.933Z,1.00
2023-01-25T13:21:11.847Z,1.00
2023-01-25T13:23:47.458Z,1.00
2023-01-25T13:26:40.437Z,1.00
2023-01-25T13:29:53.356Z,1.00
2023-01-25T13:33:03.740Z,1.00
2023-01-25T13:35:42.076Z,1.00
2023-01-25T13:38:33.467Z,1.00
2023-01-25T13:41:14.479Z,1.00
2023-01-25T13:43:47.521Z,1.00
2023-01-25T13:46:18.929Z,1.00
2023-01-25T13:48:50.439Z,1.00
2023-01-25T13:51:18.720Z,1.00
2023-01-25T13:53:57.372Z,1.00
2023-01-25T13:56:31.680Z,1.00
2023-01-25T13:59:00.289Z,1.00
2023-01-25T14:01:29.319Z,1.00
2023-01-25T14:03:59.835Z,1.00
2023-01-25T14:06:29.655Z,1.00
2023-01-25T14:08:59.548Z,1.00
2023-01-25T14:11:30.837Z,1.00
2023-01-25T14:14:01.918Z,1.00
2023-01-25T14:16:30.601Z,1.00
2023-01-25T14:19:11.001Z,1.00
2023-01-25T14:21:39.812Z,1.00
2023-01-25T14:24:11.575Z,1.00
2023-01-25T14:26:42.128Z,1.00
2023-01-25T14:29:35.673Z,1.00
2023-01-25T14:32:04.285Z,1.00
2023-01-25T14:34:32.692Z,12.30
2023-01-25T14:37:07.458Z,13.40
2023-01-25T14:39:35.723Z,30.70
2023-01-25T14:42:05.687Z,47.90
2023-01-25T14:44:34.739Z,43.90
2023-01-25T14:47:22.438Z,74.90
2023-01-25T14:49:50.787Z,57.70
2023-01-25T14:52:19.873Z,57.00
2023-01-25T14:54:50.591Z,72.90
2023-01-25T14:57:30.880Z,65.90
2023-01-25T14:59:59.221Z,97.70
2023-01-25T15:02:29.179Z,99.90
2023-01-25T15:05:07.855Z,99.90
2023-01-25T15:07:44.877Z,99.90
2023-01-25T15:10:21.984Z,99.90
2023-01-25T15:13:12.771Z,99.90
2023-01-25T15:15:51.766Z,99.90
2023-01-25T15:18:44.548Z,99.90
2023-01-25T15:21:13.809Z,99.90
2023-01-25T15:23:42.293Z,99.90
2023-01-25T15:26:20.172Z,99.90
2023-01-25T15:28:50.074Z,99.90
2023-01-25T15:31:19.128Z,99.90
2023-01-25T15:33:47.435Z,99.90
2023-01-25T15:36:16.120Z,99.90
2023-01-25T15:38:44.494Z,99.90
2023-01-25T15:41:13.825Z,99.90
2023-01-25T15:43:42.263Z,78.80
2023-01-25T15:46:17.018Z,44.40
2023-01-25T15:48:45.743Z,54.90
2023-01-25T15:51:14.016Z,78.30
2023-01-25T15:53:42.350Z,99.90
2023-01-25T15:56:14.282Z,67.20
2023-01-25T15:58:43.827Z,99.90
2023-01-25T16:01:13.575Z,95.80
2023-01-25T16:03:42.084Z,57.60
2023-01-25T16:06:23.039Z,51.40
2023-01-25T16:08:51.418Z,35.50
2023-01-25T16:11:19.721Z,64.60
2023-01-25T16:13:48.122Z,48.20
2023-01-25T16:16:19.469Z,43.00
2023-01-25T16:18:47.885Z,17.80
2023-01-25T16:21:16.182Z,35.70
2023-01-25T16:23:44.546Z,51.00
2023-01-25T16:26:16.946Z,43.30
2023-01-25T16:28:45.291Z,69.80
2023-01-25T16:31:26.265Z,41.00
2023-01-25T16:34:01.539Z,53.60
2023-01-25T16:36:29.854Z,9.70
2023-01-25T16:38:58.239Z,46.70
2023-01-25T16:41:26.576Z,92.10
2023-01-25T16:43:54.908Z,46.20
2023-01-25T16:46:24.309Z,69.40
2023-01-25T16:48:53.517Z,84.90
2023-01-25T16:51:24.023Z,99.90
2023-01-25T16:53:53.125Z,99.90
2023-01-25T16:56:21.949Z,99.90
2023-01-25T16:58:50.415Z,99.90
2023-01-25T17:01:19.465Z,99.90
2023-01-25T17:03:48.014Z,99.90
2023-01-25T17:06:18.877Z,99.90
2023-01-25T17:08:48.715Z,91.90
2023-01-25T17:11:18.868Z,61.90
2023-01-25T17:13:49.895Z,51.60
2023-01-25T17:16:18.258Z,52.60
2023-01-25T17:18:46.735Z,72.10
2023-01-25T17:21:15.113Z,25.40
2023-01-25T17:23:43.420Z,56.00
2023-01-25T17:26:14.472Z,46.90
2023-01-25T17:28:42.937Z,1.00
2023-01-25T17:31:15.474Z,13.50
2023-01-25T17:33:43.816Z,23.60
2023-01-25T17:36:15.054Z,19.60
2023-01-25T17:38:43.507Z,26.00
2023-01-25T17:41:14.631Z,18.90
2023-01-25T17:43:42.896Z,28.00
2023-01-25T17:46:14.637Z,2.60
2023-01-25T17:48:42.960Z,6.50
2023-01-25T17:51:11.256Z,1.00
2023-01-25T17:53:39.565Z,1.00
2023-01-25T17:56:08.688Z,1.00
2023-01-25T17:58:38.621Z,1.00
2023-01-25T18:01:14.184Z,1.00
2023-01-25T18:03:42.747Z,1.00
2023-01-25T18:06:11.131Z,1.00
2023-01-25T18:08:40.722Z,3.20
2023-01-25T18:11:10.614Z,8.70
2023-01-25T18:13:43.325Z,7.40
2023-01-25T18:16:11.899Z,1.00
2023-01-25T18:18:40.532Z,15.00
2023-01-25T18:21:09.876Z,30.00
2023-01-25T18:23:38.456Z,1.00
2023-01-25T18:26:06.776Z,1.00
2023-01-25T18:28:35.234Z,1.00
2023-01-25T18:31:06.576Z,1.00
2023-01-25T18:33:34.967Z,1.00
2023-01-25T18:36:04.005Z,1.00
2023-01-25T18:38:32.921Z,1.00
2023-01-25T18:41:01.211Z,1.00
2023-01-25T18:43:29.522Z,1.00
2023-01-25T18:45:58.099Z,1.00
2023-01-25T18:48:31.354Z,1.00
2023-01-25T18:50:59.887Z,1.00
2023-01-25T18:53:28.393Z,12.20
2023-01-25T18:56:01.166Z,1.00
2023-01-25T18:58:31.414Z,1.10
2023-01-25T19:01:03.918Z,1.00
2023-01-25T19:03:33.633Z,1.00
2023-01-25T19:06:01.884Z,1.00
2023-01-25T19:08:32.431Z,1.00
2023-01-25T19:11:01.596Z,1.00
2023-01-25T19:13:32.260Z,1.00
2023-01-25T19:16:02.344Z,1.00
2023-01-25T19:18:33.586Z,1.00
2023-01-25T19:21:01.833Z,1.00
2023-01-25T19:23:34.448Z,1.00
2023-01-25T19:26:02.733Z,1.00
2023-01-25T19:28:31.051Z,1.00
2023-01-25T19:31:02.096Z,1.00
2023-01-25T19:33:30.445Z,1.00
2023-01-25T19:36:04.374Z,1.00
2023-01-25T19:38:32.741Z,1.00
2023-01-25T19:41:05.198Z,1.00
2023-01-25T19:43:33.646Z,1.00
2023-01-25T19:46:09.530Z,1.00
2023-01-25T19:48:37.899Z,1.00
2023-01-25T19:51:11.437Z,1.00
2023-01-25T19:53:39.795Z,1.00
2023-01-25T19:56:09.247Z,1.00
2023-01-25T19:58:37.599Z,1.00
2023-01-25T20:01:09.117Z,1.00
2023-01-25T20:03:37.529Z,1.00
2023-01-25T20:06:07.118Z,1.00
2023-01-25T20:08:37.748Z,1.00
2023-01-25T20:11:08.877Z,1.00
2023-01-25T20:13:37.249Z,1.00
2023-01-25T20:16:06.065Z,1.00
2023-01-25T20:18:34.497Z,1.00
2023-01-25T20:21:03.579Z,1.00
2023-01-25T20:23:32.956Z,1.00
2023-01-25T20:26:03.506Z,1.00
2023-01-25T20:28:33.356Z,1.00
2023-01-25T20:31:04.001Z,1.00
2023-01-25T20:33:32.616Z,1.00
2023-01-25T20:36:01.916Z,1.00
2023-01-25T20:38:31.363Z,1.00
2023-01-25T20:41:04.157Z,1.00
2023-01-25T20:43:32.448Z,1.00
2023-01-25T20:46:01.068Z,1.00
2023-01-25T20:48:29.629Z,1.00
2023-01-25T20:51:01.977Z,1.00
2023-01-25T20:53:31.010Z,1.00
2023-01-25T20:55:59.766Z,1.00
2023-01-25T20:58:30.236Z,1.00
2023-01-25T21:00:58.603Z,1.00
2023-01-25T21:03:29.778Z,1.00
2023-01-25T21:05:58.849Z,1.00
2023-01-25T21:08:27.257Z,1.00
2023-01-25T21:10:56.392Z,1.00
2023-01-25T21:13:24.979Z,1.00
2023-01-25T21:16:02.015Z,1.00
2023-01-25T21:18:31.281Z,1.00
2023-01-25T21:21:03.689Z,1.00
2023-01-25T21:23:33.548Z,1.00
2023-01-25T21:26:01.928Z,1.00
2023-01-25T21:28:30.316Z,1.00
2023-01-25T21:30:58.601Z,1.00
2023-01-25T21:33:28.420Z,1.00
2023-01-25T21:36:00.937Z,1.00
2023-01-25T21:38:29.293Z,1.00
2023-01-25T21:41:01.465Z,1.00
2023-01-25T21:43:29.815Z,1.00
2023-01-25T21:46:13.534Z,1.00
2023-01-25T21:49:00.285Z,1.00
2023-01-25T21:51:39.452Z,1.00
2023-01-25T21:54:07.753Z,1.00
2023-01-25T21:56:36.083Z,1.00
2023-01-25T21:59:04.517Z,1.00
2023-01-25T22:01:32.807Z,1.00
2023-01-25T22:04:02.564Z,1.00
2023-01-25T22:06:30.861Z,1.00
2023-01-25T22:08:59.145Z,1.00
2023-01-25T22:11:27.428Z,1.00
2023-01-25T22:13:55.860Z,1.00
2023-01-25T22:16:24.085Z,1.00
2023-01-25T22:18:52.409Z,1.00
2023-01-25T22:21:22.711Z,1.00
2023-01-25T22:23:51.165Z,1.00
2023-01-25T22:26:20.437Z,1.00
2023-01-25T22:28:49.672Z,1.00
2023-01-25T22:31:18.974Z,1.00
2023-01-25T22:33:47.304Z,1.00
2023-01-25T22:36:16.413Z,1.00
2023-01-25T22:38:46.171Z,1.00
2023-01-25T22:41:15.232Z,1.00
2023-01-25T22:43:43.544Z,1.00
2023-01-25T22:46:12.921Z,1.00
2023-01-25T22:48:41.188Z,1.00
2023-01-25T22:51:11.101Z,1.00
2023-01-25T22:53:39.386Z,1.00
2023-01-25T22:56:11.191Z,1.00
2023-01-25T22:58:40.215Z,1.00
2023-01-25T23:01:09.801Z,1.00
2023-01-25T23:03:38.195Z,1.00
2023-01-25T23:06:08.023Z,1.00
2023-01-25T23:08:37.269Z,1.00
2023-01-25T23:11:08.312Z,1.00
2023-01-25T23:13:37.749Z,1.00
2023-01-25T23:16:06.518Z,1.00
2023-01-25T23:18:51.850Z,1.00
2023-01-25T23:21:20.743Z,1.00
2023-01-25T23:23:49.109Z,1.00
2023-01-25T23:26:18.732Z,1.00
2023-01-25T23:28:50.766Z,1.00
2023-01-25T23:31:21.310Z,1.00
2023-01-25T23:33:50.394Z,1.00
2023-01-25T23:36:19.303Z,1.00
2023-01-25T23:38:47.681Z,1.00
2023-01-25T23:41:16.021Z,1.00
2023-01-25T23:43:45.733Z,1.00
2023-01-25T23:46:14.704Z,1.00
2023-01-25T23:48:42.969Z,1.00
2023-01-25T23:51:11.998Z,1.00
2023-01-25T23:53:40.459Z,1.00
2023-01-25T23:56:09.794Z,1.00
2023-01-25T23:58:38.555Z,1.00
